createdAt,value
2022-08-03T00:01:46.741Z,101101.25
2022-08-03T00:04:14.873Z,101118.09
2022-08-03T00:06:43.171Z,101103.06
2022-08-03T00:09:13.145Z,101109.97
2022-08-03T00:11:41.219Z,101109.03
2022-08-03T00:14:10.115Z,101116.06
2022-08-03T00:16:38.752Z,101102.88
2022-08-03T00:19:06.921Z,101100.00
2022-08-03T00:21:34.942Z,101096.50
2022-08-03T00:24:03.049Z,101105.25
2022-08-03T00:26:32.748Z,101104.34
2022-08-03T00:29:00.781Z,101091.16
2022-08-03T00:31:44.967Z,101104.25
2022-08-03T00:34:17.034Z,101102.50
2022-08-03T00:36:58.114Z,101107.72
2022-08-03T00:39:26.295Z,101102.31
2022-08-03T00:41:55.738Z,101095.31
2022-08-03T00:44:23.980Z,101096.84
2022-08-03T00:46:52.817Z,101100.38
2022-08-03T00:49:20.905Z,101102.97
2022-08-03T00:51:49.380Z,101100.38
2022-08-03T00:54:17.768Z,101084.66
2022-08-03T00:56:59.486Z,101093.28
2022-08-03T00:59:32.031Z,101082.72
2022-08-03T01:02:00.066Z,101100.38
2022-08-03T01:04:29.499Z,101088.03
2022-08-03T01:07:10.995Z,101091.44
2022-08-03T01:09:47.601Z,101093.28
2022-08-03T01:12:25.939Z,101065.34
2022-08-03T01:15:01.488Z,101093.19
2022-08-03T01:17:35.707Z,101085.19
2022-08-03T01:20:08.699Z,101090.38
2022-08-03T01:22:51.420Z,101093.19
2022-08-03T01:25:36.555Z,101094.91
2022-08-03T01:28:23.720Z,101081.75
2022-08-03T01:30:56.008Z,101089.72
2022-08-03T01:33:27.728Z,101096.66
2022-08-03T01:36:01.755Z,101098.44
2022-08-03T01:38:33.741Z,101084.47
2022-08-03T01:41:08.689Z,101099.41
2022-08-03T01:44:27.817Z,101086.06
2022-08-03T01:46:31.403Z,101084.16
2022-08-03T01:49:01.357Z,101088.59
2022-08-03T01:51:57.749Z,101080.59
2022-08-03T01:54:29.524Z,101075.25
2022-08-03T01:57:00.508Z,101078.72
2022-08-03T01:59:30.613Z,101082.22
2022-08-03T02:02:29.016Z,101084.06
2022-08-03T02:04:51.904Z,101071.63
2022-08-03T02:07:21.283Z,101076.97
2022-08-03T02:09:54.373Z,101050.81
2022-08-03T02:12:25.117Z,101068.06
2022-08-03T02:14:54.987Z,101074.94
2022-08-03T02:17:39.618Z,101068.88
2022-08-03T02:20:12.418Z,101060.97
2022-08-03T02:22:42.240Z,101067.84
2022-08-03T02:25:11.530Z,101062.31
2022-08-03T02:27:44.227Z,101059.59
2022-08-03T02:30:14.690Z,101059.66
2022-08-03T02:32:50.064Z,101058.75
2022-08-03T02:35:20.501Z,101057.88
2022-08-03T02:37:53.215Z,101023.78
2022-08-03T02:40:24.438Z,101055.13
2022-08-03T02:42:56.902Z,101054.22
2022-08-03T02:45:28.079Z,101056.78
2022-08-03T02:48:02.327Z,101058.50
2022-08-03T02:50:36.900Z,101054.84
2022-08-03T02:53:05.937Z,101048.63
2022-08-03T02:55:42.947Z,101060.03
2022-08-03T02:58:14.573Z,101049.59
2022-08-03T03:00:45.357Z,101040.66
2022-08-03T03:03:16.422Z,101047.53
2022-08-03T03:05:54.448Z,101038.69
2022-08-03T03:08:28.202Z,101041.38
2022-08-03T03:10:58.374Z,101040.34
2022-08-03T03:13:28.988Z,101042.06
2022-08-03T03:15:58.629Z,101035.03
2022-08-03T03:18:29.822Z,101035.84
2022-08-03T03:20:59.235Z,101034.91
2022-08-03T03:23:29.330Z,101027.72
2022-08-03T03:25:59.225Z,101026.06
2022-08-03T03:28:28.001Z,101015.53
2022-08-03T03:30:56.371Z,101032.19
2022-08-03T03:33:27.207Z,101014.41
2022-08-03T03:35:59.773Z,100999.41
2022-08-03T03:38:28.520Z,101004.63
2022-08-03T03:40:56.821Z,101003.81
2022-08-03T03:43:25.949Z,101003.00
2022-08-03T03:45:56.113Z,101006.38
2022-08-03T03:48:25.996Z,100971.53
2022-08-03T03:50:54.509Z,101002.03
2022-08-03T03:53:24.377Z,100994.06
2022-08-03T03:55:59.372Z,101002.78
2022-08-03T03:58:32.026Z,100999.22
2022-08-03T04:01:00.591Z,100999.22
2022-08-03T04:03:29.017Z,100996.63
2022-08-03T04:06:15.894Z,100990.59
2022-08-03T04:09:03.508Z,100993.34
2022-08-03T04:11:39.683Z,100987.09
2022-08-03T04:14:13.545Z,100973.25
2022-08-03T04:16:46.531Z,100975.72
2022-08-03T04:19:23.127Z,100974.69
2022-08-03T04:21:57.280Z,100935.50
2022-08-03T04:24:31.844Z,100920.25
2022-08-03T04:27:02.216Z,100912.31
2022-08-03T04:29:32.218Z,100908.59
2022-08-03T04:32:03.183Z,100902.66
2022-08-03T04:34:32.175Z,100908.53
2022-08-03T04:37:02.625Z,100915.56
2022-08-03T04:39:34.017Z,100919.09
2022-08-03T04:42:08.797Z,100917.31
2022-08-03T04:44:39.793Z,100911.88
2022-08-03T04:47:08.221Z,100871.91
2022-08-03T04:49:37.807Z,100918.13
2022-08-03T04:52:10.387Z,100926.91
2022-08-03T04:54:48.675Z,100923.44
2022-08-03T04:57:23.017Z,100918.84
2022-08-03T05:00:01.350Z,100912.59
2022-08-03T05:02:31.406Z,100922.31
2022-08-03T05:04:59.483Z,100926.66
2022-08-03T05:07:34.057Z,100917.81
2022-08-03T05:10:15.040Z,100936.25
2022-08-03T05:12:45.460Z,100941.56
2022-08-03T05:15:14.241Z,100923.16
2022-08-03T05:17:42.914Z,100930.91
2022-08-03T05:20:12.373Z,100930.91
2022-08-03T05:22:40.995Z,100941.69
2022-08-03T05:25:16.937Z,100938.91
2022-08-03T05:27:47.636Z,100939.59
2022-08-03T05:30:31.430Z,100935.31
2022-08-03T05:33:03.475Z,100941.47
2022-08-03T05:36:00.477Z,100908.28
2022-08-03T05:38:24.156Z,100941.53
2022-08-03T05:41:23.526Z,100933.63
2022-08-03T05:43:50.969Z,100925.56
2022-08-03T05:46:19.050Z,100933.34
2022-08-03T05:48:47.035Z,100918.50
2022-08-03T05:51:15.436Z,100923.38
2022-08-03T05:53:44.041Z,100921.50
2022-08-03T05:56:16.238Z,100927.75
2022-08-03T05:58:47.344Z,100918.91
2022-08-03T06:01:16.115Z,100924.00
2022-08-03T06:03:44.273Z,100924.75
2022-08-03T06:06:12.744Z,100913.13
2022-08-03T06:08:40.937Z,100915.06
2022-08-03T06:11:09.877Z,100939.78
2022-08-03T06:13:39.969Z,100937.03
2022-08-03T06:16:11.253Z,100938.91
2022-08-03T06:18:41.107Z,100940.53
2022-08-03T06:21:14.622Z,100935.06
2022-08-03T06:23:53.946Z,100929.84
2022-08-03T06:26:25.447Z,100934.09
2022-08-03T06:28:56.003Z,100930.41
2022-08-03T06:31:32.680Z,100936.56
2022-08-03T06:34:33.936Z,100934.59
2022-08-03T06:36:52.457Z,100930.81
2022-08-03T06:39:23.365Z,100935.97
2022-08-03T06:41:52.393Z,100935.59
2022-08-03T06:44:22.451Z,100932.00
2022-08-03T06:46:51.271Z,100944.19
2022-08-03T06:49:19.589Z,100945.94
2022-08-03T06:52:05.934Z,100946.63
2022-08-03T06:54:36.115Z,100926.06
2022-08-03T06:57:05.176Z,100938.47
2022-08-03T07:00:09.554Z,100948.44
2022-08-03T07:02:22.902Z,100933.50
2022-08-03T07:04:50.960Z,100931.53
2022-08-03T07:07:19.527Z,100922.44
2022-08-03T07:09:56.652Z,100938.47
2022-08-03T07:12:28.283Z,100926.28
2022-08-03T07:15:02.129Z,100930.44
2022-08-03T07:17:33.389Z,100935.69
2022-08-03T07:20:03.530Z,100934.75
2022-08-03T07:22:31.646Z,100929.41
2022-08-03T07:25:00.337Z,100913.50
2022-08-03T07:27:29.846Z,100934.50
2022-08-03T07:30:00.063Z,100940.81
2022-08-03T07:32:28.561Z,100938.91
2022-08-03T07:35:00.485Z,100951.41
2022-08-03T07:37:30.209Z,100942.69
2022-08-03T07:39:59.010Z,100938.13
2022-08-03T07:42:27.077Z,100932.75
2022-08-03T07:44:55.255Z,100915.38
2022-08-03T07:47:34.774Z,100927.66
2022-08-03T07:50:04.422Z,100905.47
2022-08-03T07:52:51.923Z,100924.06
2022-08-03T07:55:21.533Z,100918.84
2022-08-03T07:58:00.298Z,100915.25
2022-08-03T08:00:28.660Z,100918.16
2022-08-03T08:02:58.125Z,100915.97
2022-08-03T08:05:26.540Z,100927.78
2022-08-03T08:07:54.541Z,100932.13
2022-08-03T08:10:22.809Z,100915.09
2022-08-03T08:12:52.637Z,100922.94
2022-08-03T08:15:20.809Z,100923.78
2022-08-03T08:17:51.088Z,100921.19
2022-08-03T08:20:30.530Z,100922.06
2022-08-03T08:23:01.615Z,100894.13
2022-08-03T08:25:32.273Z,100917.47
2022-08-03T08:28:29.507Z,100911.13
2022-08-03T08:30:51.576Z,100917.00
2022-08-03T08:33:23.118Z,100915.81
2022-08-03T08:35:54.621Z,100902.44
2022-08-03T08:38:23.266Z,100894.97
2022-08-03T08:40:51.855Z,100904.22
2022-08-03T08:43:20.393Z,100901.78
2022-08-03T08:45:50.859Z,100889.09
2022-08-03T08:48:25.855Z,100900.59
2022-08-03T08:50:56.836Z,100904.91
2022-08-03T08:53:28.952Z,100896.66
2022-08-03T08:56:01.601Z,100902.91
2022-08-03T08:58:32.263Z,100901.00
2022-08-03T09:01:00.666Z,100903.03
2022-08-03T09:03:30.442Z,100896.81
2022-08-03T09:06:02.510Z,100895.09
2022-08-03T09:08:31.803Z,100896.97
2022-08-03T09:10:59.859Z,100915.72
2022-08-03T09:13:29.364Z,100906.94
2022-08-03T09:16:12.092Z,100909.84
2022-08-03T09:18:40.966Z,100909.69
2022-08-03T09:21:31.160Z,100904.22
2022-08-03T09:24:04.257Z,100889.88
2022-08-03T09:26:35.099Z,100893.88
2022-08-03T09:29:09.614Z,100892.06
2022-08-03T09:31:43.549Z,100875.28
2022-08-03T09:34:13.989Z,100905.69
2022-08-03T09:36:45.718Z,100910.84
2022-08-03T09:39:15.733Z,100903.66
2022-08-03T09:41:47.454Z,100887.44
2022-08-03T09:44:24.939Z,100877.19
2022-08-03T09:46:55.953Z,100893.25
2022-08-03T09:49:25.335Z,100892.97
2022-08-03T09:52:33.646Z,100884.84
2022-08-03T09:54:44.564Z,100892.81
2022-08-03T09:57:23.841Z,100882.41
2022-08-03T10:00:02.954Z,100898.00
2022-08-03T10:02:33.304Z,100899.91
2022-08-03T10:05:01.554Z,100885.72
2022-08-03T10:07:31.115Z,100881.81
2022-08-03T10:10:29.080Z,100885.41
2022-08-03T10:12:49.530Z,100889.09
2022-08-03T10:16:22.880Z,100900.78
2022-08-03T10:18:07.420Z,100908.88
2022-08-03T10:20:39.467Z,100903.50
2022-08-03T10:23:10.158Z,100907.28
2022-08-03T10:25:40.719Z,100905.84
2022-08-03T10:28:12.623Z,100898.88
2022-08-03T10:30:45.360Z,100891.06
2022-08-03T10:33:51.982Z,100886.88
2022-08-03T10:36:08.556Z,100886.72
2022-08-03T10:38:42.230Z,100890.06
2022-08-03T10:41:11.790Z,100888.75
2022-08-03T10:43:49.203Z,100883.69
2022-08-03T10:46:20.767Z,100883.25
2022-08-03T10:48:52.582Z,100898.88
2022-08-03T10:51:21.686Z,100893.25
2022-08-03T10:53:54.964Z,100909.75
2022-08-03T10:57:14.329Z,100908.56
2022-08-03T11:00:03.816Z,100885.72
2022-08-03T11:03:03.768Z,100891.63
2022-08-03T11:05:37.420Z,100884.66
2022-08-03T11:08:30.286Z,100898.13
2022-08-03T11:11:02.299Z,100901.31
2022-08-03T11:13:34.170Z,100899.44
2022-08-03T11:16:21.834Z,100899.97
2022-08-03T11:18:58.777Z,100883.09
2022-08-03T11:21:57.387Z,100896.59
2022-08-03T11:24:59.636Z,100896.72
2022-08-03T11:27:30.846Z,100898.69
2022-08-03T11:30:02.184Z,100902.53
2022-08-03T11:33:00.343Z,100900.34
2022-08-03T11:35:31.217Z,100899.16
2022-08-03T11:38:08.382Z,100891.72
2022-08-03T11:40:45.368Z,100913.19
2022-08-03T11:43:48.702Z,100902.75
2022-08-03T11:46:29.517Z,100903.22
2022-08-03T11:49:09.868Z,100912.19
2022-08-03T11:51:40.243Z,100913.78
2022-08-03T11:54:09.092Z,100920.72
2022-08-03T11:56:48.162Z,100921.75
2022-08-03T11:59:21.551Z,100908.44
2022-08-03T12:01:52.386Z,100910.16
2022-08-03T12:04:20.714Z,100865.16
2022-08-03T12:07:01.464Z,100922.47
2022-08-03T12:09:29.609Z,100924.84
2022-08-03T12:12:00.273Z,100918.69
2022-08-03T12:14:49.326Z,100892.50
2022-08-03T12:17:20.360Z,100918.53
2022-08-03T12:19:49.121Z,100920.69
2022-08-03T12:22:17.970Z,100923.16
2022-08-03T12:24:47.425Z,100921.09
2022-08-03T12:27:25.652Z,100926.13
2022-08-03T12:29:57.276Z,100928.66
2022-08-03T12:32:29.972Z,100919.81
2022-08-03T12:35:01.525Z,100919.81
2022-08-03T12:37:30.689Z,100919.03
2022-08-03T12:40:09.351Z,100921.88
2022-08-03T12:42:39.656Z,100916.50
2022-08-03T12:45:20.209Z,100917.75
2022-08-03T12:47:54.805Z,100904.41
2022-08-03T12:50:31.470Z,100918.41
2022-08-03T12:53:01.185Z,100921.41
2022-08-03T12:55:56.537Z,100911.00
2022-08-03T12:58:34.562Z,100926.16
2022-08-03T13:01:04.869Z,100918.31
2022-08-03T13:03:49.832Z,100918.75
2022-08-03T13:06:20.454Z,100899.19
2022-08-03T13:08:49.354Z,100928.56
2022-08-03T13:11:22.448Z,100923.19
2022-08-03T13:13:51.252Z,100916.63
2022-08-03T13:16:19.607Z,100921.66
2022-08-03T13:18:52.288Z,100922.53
2022-08-03T13:21:22.002Z,100915.13
2022-08-03T13:23:52.383Z,100922.06
2022-08-03T13:26:20.386Z,100920.50
2022-08-03T13:28:51.021Z,100922.06
2022-08-03T13:31:19.289Z,100929.16
2022-08-03T13:33:49.485Z,100910.63
2022-08-03T13:36:17.825Z,100914.97
2022-08-03T13:38:46.063Z,100925.69
2022-08-03T13:41:18.820Z,100927.91
2022-08-03T13:44:26.240Z,100932.34
2022-08-03T13:46:48.324Z,100933.59
2022-08-03T13:49:17.972Z,100938.09
2022-08-03T13:51:46.058Z,100933.28
2022-08-03T13:54:14.361Z,100940.06
2022-08-03T13:56:46.611Z,100936.28
2022-08-03T13:59:14.938Z,100936.09
2022-08-03T14:01:55.089Z,100944.31
2022-08-03T14:04:25.287Z,100925.09
2022-08-03T14:06:53.634Z,100926.91
2022-08-03T14:09:21.793Z,100927.97
2022-08-03T14:12:08.416Z,100919.56
2022-08-03T14:14:37.512Z,100915.94
2022-08-03T14:17:05.714Z,100930.25
2022-08-03T14:19:53.046Z,100932.31
2022-08-03T14:22:22.227Z,100927.31
2022-08-03T14:24:50.504Z,100924.53
2022-08-03T14:27:19.958Z,100920.03
2022-08-03T14:29:48.309Z,100917.59
2022-08-03T14:32:16.754Z,100901.66
2022-08-03T14:34:46.131Z,100938.09
2022-08-03T14:37:14.552Z,100937.19
2022-08-03T14:40:00.020Z,100929.41
2022-08-03T14:42:28.890Z,100928.94
2022-08-03T14:45:01.782Z,100932.72
2022-08-03T14:47:33.357Z,100920.91
2022-08-03T14:50:37.473Z,100904.41
2022-08-03T14:53:10.124Z,100927.50
2022-08-03T14:55:49.302Z,100920.22
2022-08-03T14:58:21.193Z,100918.16
2022-08-03T15:00:51.108Z,100915.66
2022-08-03T15:03:23.721Z,100870.19
2022-08-03T15:05:54.063Z,100917.34
2022-08-03T15:08:22.666Z,100914.50
2022-08-03T15:10:51.531Z,100926.13
2022-08-03T15:13:20.814Z,100918.16
2022-08-03T15:15:49.651Z,100916.59
2022-08-03T15:18:17.785Z,100910.13
2022-08-03T15:20:47.065Z,100911.88
2022-08-03T15:23:17.150Z,100909.72
2022-08-03T15:26:03.686Z,100915.00
2022-08-03T15:28:34.896Z,100912.41
2022-08-03T15:31:06.727Z,100915.53
2022-08-03T15:33:35.594Z,100914.97
2022-08-03T15:36:04.279Z,100904.41
2022-08-03T15:38:33.836Z,100900.31
2022-08-03T15:41:02.177Z,100916.88
2022-08-03T15:43:30.302Z,100917.03
2022-08-03T15:46:27.690Z,100915.81
2022-08-03T15:48:47.375Z,100921.19
2022-08-03T15:51:15.444Z,100912.88
2022-08-03T15:53:44.882Z,100911.84
2022-08-03T15:56:16.821Z,100912.53
2022-08-03T15:59:03.689Z,100913.56
2022-08-03T16:01:35.787Z,100916.69
2022-08-03T16:04:04.662Z,100910.72
2022-08-03T16:06:36.091Z,100901.50
2022-08-03T16:09:22.810Z,100917.28
2022-08-03T16:11:52.517Z,100903.84
2022-08-03T16:14:32.038Z,100904.47
2022-08-03T16:17:04.141Z,100909.78
2022-08-03T16:19:32.746Z,100923.88
2022-08-03T16:22:03.953Z,100924.53
2022-08-03T16:24:34.255Z,100927.81
2022-08-03T16:27:06.099Z,100913.78
2022-08-03T16:29:46.544Z,100931.25
2022-08-03T16:32:14.736Z,100926.72
2022-08-03T16:34:43.143Z,100923.31
2022-08-03T16:37:37.190Z,100933.06
2022-08-03T16:40:01.551Z,100921.97
2022-08-03T16:42:29.871Z,100936.34
2022-08-03T16:44:58.115Z,100939.97
2022-08-03T16:47:26.639Z,100945.69
2022-08-03T16:49:56.515Z,100952.03
2022-08-03T16:52:26.095Z,100948.28
2022-08-03T16:54:55.073Z,100947.22
2022-08-03T16:57:31.824Z,100942.34
2022-08-03T17:00:34.135Z,100935.16
2022-08-03T17:03:18.971Z,100947.41
2022-08-03T17:05:50.198Z,100940.78
2022-08-03T17:08:26.757Z,100931.16
2022-08-03T17:10:56.068Z,100956.09
2022-08-03T17:13:38.740Z,100946.66
2022-08-03T17:16:09.949Z,100959.28
2022-08-03T17:18:42.308Z,100946.66
2022-08-03T17:21:18.634Z,100942.25
2022-08-03T17:23:56.197Z,100951.84
2022-08-03T17:26:30.664Z,100950.16
2022-08-03T17:29:11.248Z,100954.50
2022-08-03T17:31:48.832Z,100970.28
2022-08-03T17:34:18.809Z,100966.81
2022-08-03T17:37:05.867Z,100954.69
2022-08-03T17:42:30.520Z,100970.25
2022-08-03T17:45:15.574Z,100976.81
2022-08-03T17:47:44.267Z,100978.56
2022-08-03T17:50:25.302Z,100966.56
2022-08-03T17:53:07.061Z,100984.25
2022-08-03T17:55:57.533Z,100984.59
2022-08-03T17:58:41.319Z,100988.69
2022-08-03T18:04:30.235Z,100992.78
2022-08-03T18:07:11.335Z,100994.34
2022-08-03T18:10:03.730Z,100993.03
2022-08-03T18:12:41.646Z,100986.94
2022-08-03T18:15:21.429Z,100990.56
2022-08-03T18:18:02.014Z,100983.09
2022-08-03T18:20:41.038Z,101000.50
2022-08-03T18:23:25.538Z,101000.09
2022-08-03T18:26:01.788Z,100989.38
2022-08-03T18:28:32.093Z,100991.91
2022-08-03T18:31:05.601Z,100998.06
2022-08-03T18:34:19.464Z,100997.91
2022-08-03T18:36:29.991Z,100997.91
2022-08-03T18:39:00.433Z,101012.84
2022-08-03T18:41:33.292Z,101017.19
2022-08-03T18:44:06.687Z,101014.53
2022-08-03T18:47:15.818Z,101018.22
2022-08-03T18:49:58.623Z,101005.75
2022-08-03T18:52:32.349Z,101021.25
2022-08-03T18:55:20.619Z,101028.66
2022-08-03T18:57:59.841Z,101014.44
2022-08-03T19:00:54.257Z,101002.72
2022-08-03T19:03:25.536Z,101033.22
2022-08-03T19:06:20.622Z,101033.97
2022-08-03T19:08:51.537Z,101047.00
2022-08-03T19:11:28.163Z,101015.19
2022-08-03T19:14:00.462Z,101027.09
2022-08-03T19:16:35.985Z,101035.16
2022-08-03T19:19:10.650Z,101026.47
2022-08-03T19:21:46.181Z,101034.69
2022-08-03T19:24:23.383Z,101035.63
2022-08-03T19:26:56.118Z,101044.78
2022-08-03T19:29:25.290Z,101049.81
2022-08-03T19:32:16.576Z,101058.34
2022-08-03T19:34:46.663Z,101048.78
2022-08-03T19:37:16.411Z,101059.72
2022-08-03T19:39:45.356Z,101058.72
2022-08-03T19:42:31.104Z,101064.50
2022-08-03T19:45:11.360Z,101071.44
2022-08-03T19:47:52.628Z,101060.84
2022-08-03T19:50:21.865Z,101065.63
2022-08-03T19:52:52.661Z,101064.88
2022-08-03T19:55:24.250Z,101045.84
2022-08-03T19:57:57.264Z,101066.75
2022-08-03T20:00:26.490Z,101071.31
2022-08-03T20:02:55.316Z,101063.16
2022-08-03T20:05:23.765Z,101069.31
2022-08-03T20:07:54.190Z,101080.03
2022-08-03T20:10:22.981Z,101074.66
2022-08-03T20:12:52.279Z,101073.06
2022-08-03T20:15:22.372Z,101079.47
2022-08-03T20:18:03.460Z,101073.72
2022-08-03T20:20:39.180Z,101098.72
2022-08-03T20:23:19.601Z,101076.25
2022-08-03T20:25:57.242Z,101069.63
2022-08-03T20:28:32.469Z,101092.38
2022-08-03T20:31:01.906Z,101085.28
2022-08-03T20:33:46.383Z,101093.03
2022-08-03T20:36:18.456Z,101094.03
2022-08-03T20:38:50.918Z,101101.00
2022-08-03T20:41:20.803Z,101095.03
2022-08-03T20:43:49.758Z,101095.78
2022-08-03T20:46:32.681Z,101115.19
2022-08-03T20:49:09.758Z,101120.78
2022-08-03T20:51:49.497Z,101115.44
2022-08-03T20:54:30.505Z,101117.06
2022-08-03T20:57:00.278Z,101099.38
2022-08-03T20:59:38.471Z,101113.59
2022-08-03T21:02:19.639Z,101101.59
2022-08-03T21:04:57.681Z,101112.41
2022-08-03T21:08:04.203Z,101109.06
2022-08-03T21:10:19.923Z,101109.56
2022-08-03T21:12:56.257Z,100991.59
2022-08-03T21:13:14.350Z,101118.38
2022-08-03T21:16:03.248Z,101116.78
2022-08-03T21:18:38.538Z,101115.66
2022-08-03T21:21:11.268Z,101119.19
2022-08-03T21:23:48.326Z,101125.91
2022-08-03T21:26:20.672Z,101113.53
2022-08-03T21:28:49.819Z,101121.13
2022-08-03T21:31:24.526Z,101117.09
2022-08-03T21:33:55.772Z,101118.03
2022-08-03T21:36:24.333Z,101116.16
2022-08-03T21:38:56.487Z,101116.16
2022-08-03T21:41:27.864Z,101105.81
2022-08-03T21:43:56.210Z,101096.31
2022-08-03T21:46:25.060Z,101109.56
2022-08-03T21:48:56.443Z,101111.44
2022-08-03T21:51:45.335Z,101107.25
2022-08-03T21:54:14.771Z,101107.94
2022-08-03T21:56:46.627Z,101107.81
2022-08-03T21:59:19.143Z,101114.03
2022-08-03T22:01:51.480Z,101099.25
2022-08-03T22:04:50.801Z,101116.78
2022-08-03T22:07:13.116Z,101122.13
2022-08-03T22:09:51.452Z,101116.66
2022-08-03T22:12:23.813Z,101125.72
2022-08-03T22:15:00.507Z,101129.19
2022-08-03T22:17:55.263Z,101128.34
2022-08-03T22:20:21.495Z,101114.22
2022-08-03T22:22:55.861Z,101123.13
2022-08-03T22:25:30.077Z,101125.97
2022-08-03T22:28:01.754Z,101131.06
2022-08-03T22:30:31.811Z,101131.31
2022-08-03T22:33:01.214Z,101140.34
2022-08-03T22:35:29.278Z,101150.03
2022-08-03T22:38:00.023Z,101151.22
2022-08-03T22:40:28.992Z,101140.63
2022-08-03T22:43:00.255Z,101150.63
2022-08-03T22:46:06.039Z,101137.38
2022-08-03T22:48:19.447Z,101150.63
2022-08-03T22:50:48.557Z,101151.91
2022-08-03T22:53:19.249Z,101155.59
2022-08-03T22:55:49.507Z,101157.38
2022-08-03T22:58:20.980Z,101156.56
2022-08-03T23:00:54.601Z,101162.81
2022-08-03T23:03:26.026Z,101158.53
2022-08-03T23:06:17.502Z,101172.53
2022-08-03T23:08:48.162Z,101162.25
2022-08-03T23:11:19.018Z,101168.41
2022-08-03T23:13:53.567Z,101164.94
2022-08-03T23:16:28.543Z,101166.75
2022-08-03T23:18:58.752Z,101175.72
2022-08-03T23:21:51.256Z,101156.38
2022-08-03T23:24:29.607Z,101182.78
2022-08-03T23:26:59.069Z,101179.31
2022-08-03T23:29:31.640Z,101183.88
2022-08-03T23:32:00.562Z,101179.22
2022-08-03T23:34:46.956Z,101170.56
2022-08-03T23:37:16.143Z,101176.00
2022-08-03T23:39:46.820Z,101192.16
2022-08-03T23:42:18.453Z,101192.16
2022-08-03T23:44:48.220Z,101191.94
2022-08-03T23:47:16.338Z,101187.56
2022-08-03T23:49:44.929Z,101182.94
2022-08-03T23:52:21.841Z,101181.19
2022-08-03T23:55:04.574Z,101187.25
2022-08-03T23:57:40.786Z,101201.53
